createdAt,value
2017-10-16T00:02:16.522Z,66.03
2017-10-16T00:04:44.740Z,99.57
2017-10-16T00:07:12.161Z,93.87
2017-10-16T00:09:39.596Z,65.50
2017-10-16T00:12:07.792Z,58.93
2017-10-16T00:14:35.252Z,52.00
2017-10-16T00:17:02.688Z,59.23
2017-10-16T00:19:30.899Z,75.33
2017-10-16T00:21:58.320Z,63.53
2017-10-16T00:24:26.533Z,97.83
2017-10-16T00:26:53.968Z,41.07
2017-10-16T00:29:21.400Z,70.40
2017-10-16T00:31:49.608Z,59.30
2017-10-16T00:34:17.041Z,44.00
2017-10-16T00:36:45.256Z,73.67
2017-10-16T00:39:13.679Z,125.50
2017-10-16T00:41:41.120Z,158.37
2017-10-16T00:44:08.561Z,60.10
2017-10-16T00:46:36.004Z,89.37
2017-10-16T00:49:03.432Z,78.83
2017-10-16T00:51:30.879Z,87.50
2017-10-16T00:53:59.069Z,108.83
2017-10-16T00:56:26.519Z,104.03
2017-10-16T00:58:54.724Z,143.47
2017-10-16T01:01:22.147Z,75.27
2017-10-16T01:03:49.576Z,111.57
2017-10-16T01:06:17.022Z,88.50
2017-10-16T01:08:44.461Z,77.70
2017-10-16T01:11:11.891Z,71.00
2017-10-16T01:13:39.320Z,98.33
2017-10-16T01:16:07.533Z,78.03
2017-10-16T01:18:34.968Z,79.00
2017-10-16T01:21:02.424Z,64.77
2017-10-16T01:23:29.858Z,96.33
2017-10-16T01:25:57.284Z,83.83
2017-10-16T01:28:24.721Z,73.87
2017-10-16T01:30:52.147Z,47.47
2017-10-16T01:33:19.593Z,71.33
2017-10-16T01:35:47.784Z,90.60
2017-10-16T01:38:15.221Z,90.87
2017-10-16T01:40:43.416Z,65.90
2017-10-16T01:43:10.853Z,225.40
2017-10-16T01:45:39.043Z,71.03
2017-10-16T01:48:06.481Z,73.90
2017-10-16T01:50:34.680Z,130.13
2017-10-16T01:53:02.116Z,61.03
2017-10-16T01:55:31.309Z,75.87
2017-10-16T01:57:59.512Z,68.30
2017-10-16T02:00:27.018Z,111.67
2017-10-16T02:02:54.696Z,91.63
2017-10-16T02:05:22.109Z,87.30
2017-10-16T02:07:49.548Z,70.40
2017-10-16T02:10:16.973Z,90.90
2017-10-16T02:12:45.176Z,77.63
2017-10-16T02:15:12.610Z,85.13
2017-10-16T02:17:40.824Z,75.07
2017-10-16T02:20:08.269Z,65.97
2017-10-16T02:22:35.706Z,61.83
2017-10-16T02:25:03.913Z,79.33
2017-10-16T02:27:31.357Z,112.40
2017-10-16T02:29:58.810Z,98.77
2017-10-16T02:32:26.264Z,64.83
2017-10-16T02:34:53.691Z,84.77
2017-10-16T02:37:21.889Z,68.07
2017-10-16T02:39:49.329Z,61.57
2017-10-16T02:42:17.535Z,62.37
2017-10-16T02:44:45.236Z,77.73
2017-10-16T02:47:12.648Z,60.53
2017-10-16T02:49:40.090Z,67.73
2017-10-16T02:52:08.300Z,52.73
2017-10-16T02:54:35.746Z,109.90
2017-10-16T02:57:03.175Z,55.43
2017-10-16T02:59:31.379Z,58.07
2017-10-16T03:01:58.813Z,49.87
2017-10-16T03:04:27.026Z,69.80
2017-10-16T03:06:55.230Z,59.53
2017-10-16T03:09:22.673Z,51.17
2017-10-16T03:11:50.122Z,81.27
2017-10-16T03:14:17.554Z,46.90
2017-10-16T03:16:44.982Z,60.40
2017-10-16T03:19:13.193Z,43.20
2017-10-16T03:21:40.629Z,54.77
2017-10-16T03:24:08.084Z,50.97
2017-10-16T03:26:35.522Z,54.30
2017-10-16T03:29:03.725Z,42.90
2017-10-16T03:31:31.174Z,73.57
2017-10-16T03:33:58.617Z,68.33
2017-10-16T03:36:26.832Z,69.13
2017-10-16T03:38:54.274Z,105.20
2017-10-16T03:41:21.701Z,41.03
2017-10-16T03:43:49.902Z,89.57
2017-10-16T03:46:17.332Z,45.97
2017-10-16T03:48:45.549Z,109.93
2017-10-16T03:51:12.990Z,53.53
2017-10-16T03:53:40.425Z,52.83
2017-10-16T03:56:08.631Z,49.43
2017-10-16T03:58:36.067Z,48.77
2017-10-16T04:01:03.495Z,54.70
2017-10-16T04:03:30.924Z,44.53
2017-10-16T04:05:58.369Z,48.60
2017-10-16T04:08:25.810Z,146.10
2017-10-16T04:10:53.262Z,68.23
2017-10-16T04:13:20.685Z,37.83
2017-10-16T04:15:48.903Z,46.10
2017-10-16T04:18:16.341Z,54.53
2017-10-16T04:20:43.776Z,53.97
2017-10-16T04:23:11.977Z,79.70
2017-10-16T04:25:39.411Z,69.53
2017-10-16T04:28:07.609Z,51.23
2017-10-16T04:30:35.064Z,53.97
2017-10-16T04:33:06.082Z,36.13
2017-10-16T04:35:34.280Z,35.77
2017-10-16T04:38:01.711Z,32.03
2017-10-16T04:40:29.925Z,41.63
2017-10-16T04:42:57.357Z,38.17
2017-10-16T04:45:24.784Z,63.87
2017-10-16T04:47:52.229Z,39.90
2017-10-16T04:50:19.661Z,79.73
2017-10-16T04:52:47.092Z,74.87
2017-10-16T04:55:14.525Z,82.13
2017-10-16T04:57:42.736Z,51.27
2017-10-16T05:00:10.171Z,41.60
2017-10-16T05:02:37.609Z,33.80
2017-10-16T05:05:05.819Z,38.73
2017-10-16T05:07:33.262Z,36.23
2017-10-16T05:10:00.689Z,77.83
2017-10-16T05:12:28.123Z,48.47
2017-10-16T05:14:56.320Z,77.13
2017-10-16T05:17:23.761Z,93.97
2017-10-16T05:19:51.208Z,78.23
2017-10-16T05:22:18.644Z,57.60
2017-10-16T05:24:46.086Z,58.50
2017-10-16T05:27:13.521Z,44.47
2017-10-16T05:29:41.712Z,49.17
2017-10-16T05:32:09.155Z,32.90
2017-10-16T05:34:37.365Z,49.07
2017-10-16T05:37:04.810Z,42.20
2017-10-16T05:39:32.257Z,53.93
2017-10-16T05:41:59.697Z,63.47
2017-10-16T05:44:27.907Z,64.83
2017-10-16T05:46:55.336Z,55.97
2017-10-16T05:49:23.549Z,39.73
2017-10-16T05:51:50.985Z,42.33
2017-10-16T05:54:18.434Z,35.17
2017-10-16T05:56:45.866Z,73.93
2017-10-16T05:59:13.305Z,56.83
2017-10-16T06:01:40.728Z,53.93
2017-10-16T06:04:08.180Z,33.80
2017-10-16T06:06:35.604Z,41.10
2017-10-16T06:09:03.811Z,63.07
2017-10-16T06:11:31.245Z,50.43
2017-10-16T06:13:58.681Z,83.20
2017-10-16T06:16:26.896Z,42.63
2017-10-16T06:18:54.321Z,39.90
2017-10-16T06:21:22.533Z,40.63
2017-10-16T06:23:49.977Z,69.17
2017-10-16T06:26:17.414Z,43.57
2017-10-16T06:28:45.626Z,54.40
2017-10-16T06:31:13.070Z,71.57
2017-10-16T06:33:40.506Z,88.53
2017-10-16T06:36:07.945Z,34.27
2017-10-16T06:38:35.392Z,42.20
2017-10-16T06:41:02.819Z,40.20
2017-10-16T06:43:30.263Z,52.50
2017-10-16T06:45:57.699Z,51.60
2017-10-16T06:48:25.136Z,53.77
2017-10-16T06:50:53.353Z,54.63
2017-10-16T06:53:20.780Z,47.53
2017-10-16T06:55:48.216Z,29.00
2017-10-16T06:58:16.423Z,37.47
2017-10-16T07:00:43.860Z,47.93
2017-10-16T07:03:11.299Z,46.97
2017-10-16T07:05:38.740Z,47.87
2017-10-16T07:08:06.181Z,50.57
2017-10-16T07:10:33.631Z,44.97
2017-10-16T07:13:01.465Z,52.47
2017-10-16T07:15:28.900Z,42.00
2017-10-16T07:17:57.097Z,38.70
2017-10-16T07:20:24.541Z,30.47
2017-10-16T07:22:52.752Z,37.13
2017-10-16T07:25:20.190Z,38.03
2017-10-16T07:27:47.626Z,31.30
2017-10-16T07:30:15.837Z,37.00
2017-10-16T07:32:43.288Z,42.57
2017-10-16T07:35:10.751Z,34.63
2017-10-16T07:37:38.180Z,43.30
2017-10-16T07:40:05.619Z,42.57
2017-10-16T07:42:33.053Z,38.77
2017-10-16T07:45:00.490Z,37.33
2017-10-16T07:47:27.944Z,39.00
2017-10-16T07:49:55.372Z,38.33
2017-10-16T07:52:22.817Z,46.07
2017-10-16T07:54:51.016Z,44.90
2017-10-16T07:57:18.455Z,49.30
2017-10-16T07:59:45.894Z,43.87
2017-10-16T08:02:14.104Z,56.40
2017-10-16T08:04:41.528Z,42.47
2017-10-16T08:07:09.771Z,43.57
2017-10-16T08:09:37.200Z,51.10
2017-10-16T08:12:04.637Z,53.50
2017-10-16T08:14:32.080Z,43.27
2017-10-16T08:17:00.281Z,50.03
2017-10-16T08:19:27.713Z,45.20
2017-10-16T08:21:55.926Z,44.63
2017-10-16T08:24:23.361Z,47.97
2017-10-16T08:26:50.804Z,44.33
2017-10-16T08:29:19.010Z,40.80
2017-10-16T08:31:46.574Z,40.17
2017-10-16T08:34:14.004Z,44.67
2017-10-16T08:36:41.460Z,41.03
2017-10-16T08:39:08.901Z,46.83
2017-10-16T08:41:37.097Z,40.93
2017-10-16T08:44:04.543Z,39.40
2017-10-16T08:46:32.732Z,44.87
2017-10-16T08:49:00.186Z,47.00
2017-10-16T08:51:27.629Z,43.27
2017-10-16T08:53:55.070Z,44.17
2017-10-16T08:56:22.502Z,39.73
2017-10-16T08:58:49.936Z,48.10
2017-10-16T09:01:17.377Z,40.33
2017-10-16T09:03:44.817Z,40.87
2017-10-16T09:06:13.023Z,44.30
2017-10-16T09:08:41.460Z,57.77
2017-10-16T09:11:09.663Z,37.37
2017-10-16T09:13:37.109Z,32.70
2017-10-16T09:16:04.545Z,31.70
2017-10-16T09:18:32.750Z,34.07
2017-10-16T09:21:00.184Z,31.03
2017-10-16T09:23:28.397Z,26.43
2017-10-16T09:25:55.834Z,30.80
2017-10-16T09:28:23.270Z,31.57
2017-10-16T09:30:51.477Z,35.90
2017-10-16T09:33:18.921Z,32.30
2017-10-16T09:35:46.362Z,28.67
2017-10-16T09:38:14.578Z,26.87
2017-10-16T09:40:42.005Z,23.73
2017-10-16T09:43:09.461Z,27.03
2017-10-16T09:45:36.901Z,31.67
2017-10-16T09:48:05.111Z,24.80
2017-10-16T09:50:32.548Z,23.80
2017-10-16T09:52:59.989Z,26.07
2017-10-16T09:55:28.207Z,25.80
2017-10-16T09:57:55.639Z,26.63
2017-10-16T10:00:23.076Z,22.27
2017-10-16T10:02:51.277Z,27.03
2017-10-16T10:05:18.800Z,24.60
2017-10-16T10:07:47.009Z,26.87
2017-10-16T10:10:14.441Z,27.27
2017-10-16T10:12:42.651Z,25.70
2017-10-16T10:15:10.071Z,26.60
2017-10-16T10:17:38.273Z,25.90
2017-10-16T10:20:05.708Z,23.93
2017-10-16T10:22:33.916Z,24.27
2017-10-16T10:25:01.358Z,26.43
2017-10-16T10:27:28.802Z,26.30
2017-10-16T10:29:57.036Z,29.20
2017-10-16T10:32:24.486Z,30.60
2017-10-16T10:34:51.917Z,29.40
2017-10-16T10:37:19.362Z,24.87
2017-10-16T10:39:46.807Z,29.60
2017-10-16T10:42:14.232Z,26.83
2017-10-16T10:44:41.684Z,25.40
2017-10-16T10:47:09.127Z,31.90
2017-10-16T10:49:36.570Z,25.87
2017-10-16T10:52:04.013Z,29.17
2017-10-16T10:54:31.456Z,31.60
2017-10-16T10:56:58.887Z,22.37
2017-10-16T10:59:27.088Z,25.23
2017-10-16T11:01:54.546Z,31.67
2017-10-16T11:04:21.982Z,25.70
2017-10-16T11:06:50.191Z,23.70
2017-10-16T11:09:17.634Z,28.17
2017-10-16T11:11:45.077Z,24.37
2017-10-16T11:14:13.278Z,24.40
2017-10-16T11:16:40.721Z,25.30
2017-10-16T11:19:08.163Z,27.70
2017-10-16T11:21:36.372Z,26.57
2017-10-16T11:24:03.804Z,26.67
2017-10-16T11:26:31.243Z,27.80
2017-10-16T11:28:59.456Z,26.17
2017-10-16T11:31:26.902Z,23.53
2017-10-16T11:33:54.329Z,24.97
2017-10-16T11:36:22.547Z,27.83
2017-10-16T11:38:50.000Z,28.90
2017-10-16T11:41:17.441Z,29.53
2017-10-16T11:43:44.880Z,27.93
2017-10-16T11:46:13.110Z,23.67
2017-10-16T11:48:40.546Z,21.90
2017-10-16T11:51:07.979Z,27.30
2017-10-16T11:53:35.428Z,29.33
2017-10-16T11:56:03.646Z,29.07
2017-10-16T11:58:31.096Z,25.23
2017-10-16T12:00:58.533Z,24.57
2017-10-16T12:03:25.975Z,25.33
2017-10-16T12:05:54.178Z,26.43
2017-10-16T12:08:21.617Z,24.97
2017-10-16T12:10:49.082Z,29.83
2017-10-16T12:13:17.273Z,28.37
2017-10-16T12:15:44.713Z,25.70
2017-10-16T12:18:12.173Z,26.30
2017-10-16T12:20:39.601Z,25.13
2017-10-16T12:23:07.824Z,28.57
2017-10-16T12:25:35.254Z,27.83
2017-10-16T12:28:02.690Z,27.17
2017-10-16T12:30:30.890Z,24.67
2017-10-16T12:32:58.341Z,25.00
2017-10-16T12:35:25.778Z,28.87
2017-10-16T12:37:53.978Z,22.13
2017-10-16T12:40:21.416Z,23.83
2017-10-16T12:42:49.624Z,25.47
2017-10-16T12:45:17.062Z,25.80
2017-10-16T12:47:44.495Z,19.50
2017-10-16T12:50:12.692Z,24.80
2017-10-16T12:52:40.164Z,24.87
2017-10-16T12:55:07.594Z,24.90
2017-10-16T12:57:35.797Z,23.47
2017-10-16T13:00:03.240Z,24.70
2017-10-16T13:02:30.677Z,16.70
2017-10-16T13:07:51.675Z,26.57
2017-10-16T13:10:19.117Z,23.27
2017-10-16T13:12:46.554Z,23.23
2017-10-16T13:15:14.752Z,24.97
2017-10-16T13:17:42.201Z,25.67
2017-10-16T13:20:09.644Z,19.90
2017-10-16T13:22:37.085Z,19.80
2017-10-16T13:25:04.535Z,29.53
2017-10-16T13:27:31.961Z,16.00
2017-10-16T13:30:00.179Z,18.47
2017-10-16T13:32:27.604Z,17.63
2017-10-16T13:34:55.817Z,18.20
2017-10-16T13:37:23.258Z,17.10
2017-10-16T13:39:50.706Z,18.50
2017-10-16T13:42:18.134Z,20.17
2017-10-16T13:44:45.617Z,24.47
2017-10-16T13:47:13.052Z,20.27
2017-10-16T13:49:41.264Z,18.80
2017-10-16T13:52:08.734Z,16.50
2017-10-16T13:54:36.173Z,17.73
2017-10-16T13:57:03.645Z,18.43
2017-10-16T13:59:31.113Z,16.40
2017-10-16T14:01:58.549Z,20.20
2017-10-16T14:04:30.465Z,15.17
2017-10-16T14:06:57.900Z,18.73
2017-10-16T14:09:25.336Z,22.07
2017-10-16T14:11:52.787Z,19.17
2017-10-16T14:14:20.225Z,17.73
2017-10-16T14:16:47.989Z,18.13
2017-10-16T14:19:15.422Z,16.43
2017-10-16T14:21:42.861Z,16.20
2017-10-16T14:24:10.305Z,14.70
2017-10-16T14:26:37.745Z,17.93
2017-10-16T14:29:05.186Z,15.90
2017-10-16T14:31:32.633Z,20.63
2017-10-16T14:34:00.107Z,26.50
2017-10-16T14:36:27.545Z,16.30
2017-10-16T14:38:54.987Z,15.07
2017-10-16T14:41:23.206Z,15.70
2017-10-16T14:43:50.640Z,15.87
2017-10-16T14:46:18.076Z,17.40
2017-10-16T14:48:46.298Z,19.83
2017-10-16T14:51:13.732Z,18.37
2017-10-16T14:53:41.170Z,18.97
2017-10-16T14:56:09.376Z,15.90
2017-10-16T14:58:36.827Z,22.93
2017-10-16T15:01:04.290Z,16.47
2017-10-16T15:03:31.731Z,15.07
2017-10-16T15:05:59.168Z,13.13
2017-10-16T15:08:27.382Z,12.57
2017-10-16T15:10:54.821Z,15.63
2017-10-16T15:13:22.258Z,16.07
2017-10-16T15:15:50.467Z,18.10
2017-10-16T15:18:17.924Z,16.37
2017-10-16T15:20:45.357Z,15.77
2017-10-16T15:23:12.808Z,21.40
2017-10-16T15:25:40.996Z,17.37
2017-10-16T15:28:08.434Z,21.57
2017-10-16T15:30:36.628Z,20.20
2017-10-16T15:33:04.079Z,15.40
2017-10-16T15:35:31.519Z,16.97
2017-10-16T15:37:59.733Z,21.10
2017-10-16T15:40:27.173Z,17.60
2017-10-16T15:42:54.613Z,16.00
2017-10-16T15:45:22.821Z,19.13
2017-10-16T15:47:50.266Z,15.30
2017-10-16T15:50:17.701Z,13.70
2017-10-16T15:52:45.913Z,14.47
2017-10-16T15:55:13.349Z,22.90
2017-10-16T15:57:40.797Z,18.07
2017-10-16T16:00:08.238Z,13.23
2017-10-16T16:02:36.442Z,19.43
2017-10-16T16:05:03.884Z,20.90
2017-10-16T16:07:31.351Z,14.57
2017-10-16T16:09:59.531Z,21.93
2017-10-16T16:12:26.971Z,16.40
2017-10-16T16:14:55.204Z,15.30
2017-10-16T16:17:22.612Z,29.83
2017-10-16T16:19:50.052Z,17.93
2017-10-16T16:22:18.265Z,17.80
2017-10-16T16:24:45.700Z,16.63
2017-10-16T16:27:13.141Z,24.03
2017-10-16T16:29:41.353Z,17.83
2017-10-16T16:32:08.788Z,22.07
2017-10-16T16:34:36.238Z,21.40
2017-10-16T16:37:03.687Z,21.40
2017-10-16T16:39:31.916Z,15.50
2017-10-16T16:41:59.362Z,19.33
2017-10-16T16:44:26.815Z,15.93
2017-10-16T16:46:54.244Z,17.63
2017-10-16T16:49:21.683Z,27.97
2017-10-16T16:51:49.876Z,25.30
2017-10-16T16:54:17.313Z,20.27
2017-10-16T16:56:45.532Z,19.23
2017-10-16T16:59:12.973Z,20.70
2017-10-16T17:01:40.413Z,25.40
2017-10-16T17:04:08.620Z,23.20
2017-10-16T17:06:36.059Z,20.10
2017-10-16T17:09:03.493Z,23.93
2017-10-16T17:11:31.715Z,27.30
2017-10-16T17:13:59.174Z,27.17
2017-10-16T17:16:26.623Z,26.27
2017-10-16T17:18:54.065Z,19.17
2017-10-16T17:21:21.498Z,26.70
2017-10-16T17:23:49.692Z,31.33
2017-10-16T17:26:17.133Z,28.40
2017-10-16T17:28:45.332Z,25.60
2017-10-16T17:31:12.774Z,28.83
2017-10-16T17:33:40.214Z,27.07
2017-10-16T17:36:08.427Z,25.17
2017-10-16T17:38:35.862Z,30.50
2017-10-16T17:41:04.062Z,23.77
2017-10-16T17:43:31.497Z,28.70
2017-10-16T17:45:58.938Z,21.97
2017-10-16T17:48:27.132Z,44.57
2017-10-16T17:50:54.564Z,27.70
2017-10-16T17:53:22.756Z,29.40
2017-10-16T17:55:50.198Z,27.37
2017-10-16T17:58:18.407Z,24.90
2017-10-16T18:00:45.854Z,34.13
2017-10-16T18:03:13.293Z,29.97
2017-10-16T18:05:41.518Z,32.40
2017-10-16T18:08:08.957Z,30.20
2017-10-16T18:10:36.412Z,30.77
2017-10-16T18:13:03.849Z,31.80
2017-10-16T18:15:31.290Z,29.80
2017-10-16T18:17:59.499Z,38.40
2017-10-16T18:20:26.940Z,33.50
2017-10-16T18:22:54.390Z,33.43
2017-10-16T18:25:21.818Z,32.50
2017-10-16T18:27:49.252Z,47.13
2017-10-16T18:30:17.458Z,50.50
2017-10-16T18:32:45.676Z,40.10
2017-10-16T18:35:13.105Z,31.80
2017-10-16T18:37:41.309Z,39.20
2017-10-16T18:40:08.746Z,40.63
2017-10-16T18:42:36.198Z,40.43
2017-10-16T18:45:04.398Z,36.47
2017-10-16T18:47:31.837Z,35.60
2017-10-16T18:49:59.273Z,35.30
2017-10-16T18:52:26.708Z,31.73
2017-10-16T18:54:54.141Z,37.10
2017-10-16T18:57:21.593Z,29.97
2017-10-16T18:59:49.025Z,35.70
2017-10-16T19:02:16.465Z,41.80
2017-10-16T19:04:43.909Z,32.50
2017-10-16T19:07:12.123Z,34.47
2017-10-16T19:09:39.562Z,34.13
2017-10-16T19:12:07.001Z,27.40
2017-10-16T19:14:35.193Z,37.27
2017-10-16T19:17:02.632Z,31.03
2017-10-16T19:19:30.847Z,30.70
2017-10-16T19:21:58.296Z,35.57
2017-10-16T19:24:25.731Z,34.47
2017-10-16T19:26:53.942Z,38.50
2017-10-16T19:29:21.373Z,27.50
2017-10-16T19:31:48.809Z,29.33
2017-10-16T19:34:16.252Z,33.83
2017-10-16T19:36:43.693Z,32.37
2017-10-16T19:39:11.133Z,29.80
2017-10-16T19:41:38.574Z,26.40
2017-10-16T19:44:06.032Z,30.03
2017-10-16T19:46:33.474Z,30.37
2017-10-16T19:49:00.919Z,28.47
2017-10-16T19:51:28.367Z,40.60
2017-10-16T19:53:56.570Z,32.37
2017-10-16T19:56:25.017Z,33.70
2017-10-16T19:58:53.224Z,31.93
2017-10-16T20:01:20.671Z,39.60
2017-10-16T20:03:48.107Z,33.33
2017-10-16T20:06:16.320Z,31.67
2017-10-16T20:08:43.768Z,31.03
2017-10-16T20:11:11.202Z,30.00
2017-10-16T20:13:39.414Z,37.73
2017-10-16T20:16:06.850Z,32.33
2017-10-16T20:18:34.288Z,40.87
2017-10-16T20:21:02.510Z,43.63
2017-10-16T20:23:29.955Z,35.70
2017-10-16T20:25:57.385Z,41.00
2017-10-16T20:28:24.830Z,36.07
2017-10-16T20:30:53.039Z,43.83
2017-10-16T20:33:20.486Z,36.20
2017-10-16T20:35:47.912Z,33.27
2017-10-16T20:38:16.130Z,42.73
2017-10-16T20:40:44.559Z,46.40
2017-10-16T20:43:12.017Z,38.53
2017-10-16T20:45:40.216Z,34.97
2017-10-16T20:48:07.658Z,39.93
2017-10-16T20:50:35.879Z,29.00
2017-10-16T20:53:03.305Z,32.53
2017-10-16T20:55:30.736Z,35.83
2017-10-16T20:57:58.189Z,36.33
2017-10-16T21:00:25.616Z,35.13
2017-10-16T21:02:53.068Z,42.07
2017-10-16T21:05:20.480Z,43.67
2017-10-16T21:07:48.696Z,43.80
2017-10-16T21:10:16.142Z,41.53
2017-10-16T21:12:43.580Z,48.63
2017-10-16T21:15:11.015Z,35.03
2017-10-16T21:17:39.226Z,60.00
2017-10-16T21:20:06.649Z,44.47
2017-10-16T21:22:34.865Z,47.70
2017-10-16T21:25:02.303Z,37.33
2017-10-16T21:27:29.750Z,35.53
2017-10-16T21:29:57.951Z,44.60
2017-10-16T21:32:25.404Z,32.60
2017-10-16T21:34:52.832Z,39.70
2017-10-16T21:37:21.039Z,48.33
2017-10-16T21:39:48.476Z,46.73
2017-10-16T21:42:15.924Z,41.73
2017-10-16T21:44:44.127Z,42.53
2017-10-16T21:47:11.564Z,39.70
2017-10-16T21:49:39.001Z,38.93
2017-10-16T21:52:07.214Z,41.43
2017-10-16T21:54:34.649Z,37.50
2017-10-16T21:57:02.088Z,40.63
2017-10-16T21:59:30.299Z,34.27
2017-10-16T22:01:57.734Z,44.93
2017-10-16T22:04:25.933Z,41.00
2017-10-16T22:06:53.371Z,41.20
2017-10-16T22:09:20.813Z,34.33
2017-10-16T22:11:49.004Z,35.90
2017-10-16T22:14:16.436Z,35.20
2017-10-16T22:16:44.637Z,30.50
2017-10-16T22:19:12.083Z,38.13
2017-10-16T22:21:40.295Z,31.67
2017-10-16T22:24:07.742Z,28.70
2017-10-16T22:26:35.180Z,30.63
2017-10-16T22:29:02.622Z,29.13
2017-10-16T22:31:30.822Z,26.80
2017-10-16T22:33:58.266Z,30.77
2017-10-16T22:36:25.693Z,24.37
2017-10-16T22:38:53.189Z,24.80
2017-10-16T22:41:20.616Z,21.47
2017-10-16T22:43:48.834Z,27.03
2017-10-16T22:46:16.264Z,23.20
2017-10-16T22:48:43.699Z,25.73
2017-10-16T22:51:11.900Z,21.73
2017-10-16T22:53:39.336Z,26.90
2017-10-16T22:56:07.532Z,18.80
2017-10-16T22:58:34.978Z,20.03
2017-10-16T23:01:03.181Z,22.63
2017-10-16T23:03:30.626Z,26.63
2017-10-16T23:05:58.058Z,24.20
2017-10-16T23:08:26.270Z,28.43
2017-10-16T23:10:53.714Z,28.77
2017-10-16T23:13:21.150Z,31.97
2017-10-16T23:15:49.348Z,38.73
2017-10-16T23:18:16.785Z,34.20
2017-10-16T23:20:44.989Z,40.80
2017-10-16T23:23:12.437Z,36.40
2017-10-16T23:25:39.860Z,35.20
2017-10-16T23:28:13.885Z,32.47
2017-10-16T23:30:42.097Z,36.30
2017-10-16T23:33:09.523Z,31.83
2017-10-16T23:35:36.970Z,34.47
2017-10-16T23:38:05.177Z,30.67
2017-10-16T23:40:32.621Z,33.40
2017-10-16T23:43:00.070Z,42.37
2017-10-16T23:45:27.502Z,29.77
2017-10-16T23:47:55.711Z,33.97
2017-10-16T23:50:23.141Z,28.17
2017-10-16T23:52:51.353Z,48.97
2017-10-16T23:55:18.802Z,29.97
2017-10-16T23:57:46.220Z,29.00
